createdAt,value
2018-09-19T00:01:05.588Z,91.80
2018-09-19T00:03:38.022Z,92.20
2018-09-19T00:06:10.455Z,92.10
2018-09-19T00:08:42.887Z,92.30
2018-09-19T00:11:15.275Z,92.50
2018-09-19T00:13:47.706Z,92.60
2018-09-19T00:16:20.094Z,92.70
2018-09-19T00:18:52.745Z,92.90
2018-09-19T00:21:25.132Z,93.00
2018-09-19T00:23:57.547Z,93.20
2018-09-19T00:26:29.947Z,93.30
2018-09-19T00:29:02.440Z,93.60
2018-09-19T00:31:34.833Z,93.70
2018-09-19T00:34:07.254Z,93.80
2018-09-19T00:36:39.638Z,94.00
2018-09-19T00:39:12.054Z,94.20
2018-09-19T00:41:44.510Z,94.40
2018-09-19T00:44:23.221Z,94.50
2018-09-19T00:46:55.618Z,94.70
2018-09-19T00:49:28.046Z,94.80
2018-09-19T00:52:00.471Z,95.20
2018-09-19T00:54:32.905Z,95.40
2018-09-19T00:57:05.298Z,95.70
2018-09-19T00:59:37.710Z,95.90
2018-09-19T01:02:10.121Z,96.00
2018-09-19T01:04:42.512Z,96.20
2018-09-19T01:07:14.920Z,96.20
2018-09-19T01:09:47.327Z,96.30
2018-09-19T01:12:19.723Z,96.50
2018-09-19T01:14:52.137Z,96.80
2018-09-19T01:17:24.553Z,96.90
2018-09-19T01:19:56.942Z,97.10
2018-09-19T01:22:29.341Z,97.40
2018-09-19T01:25:01.771Z,97.30
2018-09-19T01:27:34.171Z,97.50
2018-09-19T01:30:06.562Z,97.50
2018-09-19T01:32:39.024Z,97.90
2018-09-19T01:35:11.571Z,97.60
2018-09-19T01:37:43.974Z,97.80
2018-09-19T01:40:16.388Z,97.70
2018-09-19T01:42:48.771Z,97.70
2018-09-19T01:45:21.191Z,97.80
2018-09-19T01:47:53.573Z,98.00
2018-09-19T01:50:25.975Z,98.10
2018-09-19T01:52:58.345Z,98.30
2018-09-19T01:55:30.762Z,98.40
2018-09-19T01:58:03.181Z,98.50
2018-09-19T02:00:35.610Z,98.30
2018-09-19T02:03:08.073Z,98.50
2018-09-19T02:05:40.505Z,98.50
2018-09-19T02:08:12.935Z,98.60
2018-09-19T02:10:45.350Z,98.70
2018-09-19T02:13:17.758Z,98.70
2018-09-19T02:15:50.529Z,98.90
2018-09-19T02:18:22.946Z,98.90
2018-09-19T02:20:55.346Z,98.90
2018-09-19T02:23:27.742Z,99.20
2018-09-19T02:26:00.157Z,99.20
2018-09-19T02:28:32.626Z,99.30
2018-09-19T02:31:04.969Z,99.30
2018-09-19T02:33:37.644Z,99.20
2018-09-19T02:36:10.129Z,99.20
2018-09-19T02:38:42.513Z,99.40
2018-09-19T02:41:14.927Z,99.60
2018-09-19T02:43:47.314Z,99.60
2018-09-19T02:46:19.733Z,99.60
2018-09-19T02:48:52.143Z,99.70
2018-09-19T02:51:24.562Z,99.70
2018-09-19T02:53:57.136Z,99.90
2018-09-19T02:56:29.538Z,99.90
2018-09-19T02:59:01.987Z,99.90
2018-09-19T03:01:34.421Z,99.90
2018-09-19T03:04:06.815Z,99.90
2018-09-19T03:06:39.224Z,99.90
2018-09-19T03:09:11.621Z,99.90
2018-09-19T03:11:44.066Z,99.90
2018-09-19T03:14:16.482Z,99.90
2018-09-19T03:16:48.885Z,99.90
2018-09-19T03:19:21.274Z,99.90
2018-09-19T03:21:53.837Z,99.90
2018-09-19T03:24:26.226Z,99.90
2018-09-19T03:26:58.962Z,99.90
2018-09-19T03:29:31.382Z,99.90
2018-09-19T03:32:03.782Z,99.90
2018-09-19T03:34:36.213Z,99.90
2018-09-19T03:37:08.625Z,99.90
2018-09-19T03:39:41.025Z,99.90
2018-09-19T03:42:13.418Z,99.90
2018-09-19T03:44:45.873Z,99.90
2018-09-19T03:47:18.245Z,99.90
2018-09-19T03:49:50.742Z,99.90
2018-09-19T03:52:23.139Z,99.90
2018-09-19T03:54:55.537Z,99.90
2018-09-19T03:57:27.950Z,99.90
2018-09-19T04:00:00.359Z,99.90
2018-09-19T04:02:32.772Z,99.90
2018-09-19T04:05:05.164Z,99.90
2018-09-19T04:07:37.592Z,99.90
2018-09-19T04:10:10.010Z,99.90
2018-09-19T04:12:42.431Z,99.90
2018-09-19T04:15:14.837Z,99.90
2018-09-19T04:17:47.333Z,99.90
2018-09-19T04:20:19.712Z,99.90
2018-09-19T04:22:52.117Z,99.90
2018-09-19T04:25:24.542Z,99.90
2018-09-19T04:27:56.967Z,99.90
2018-09-19T04:30:29.405Z,99.90
2018-09-19T04:33:01.859Z,99.90
2018-09-19T04:35:34.269Z,99.90
2018-09-19T04:38:06.725Z,99.90
2018-09-19T04:40:39.177Z,99.90
2018-09-19T04:43:12.456Z,99.90
2018-09-19T04:45:44.875Z,99.90
2018-09-19T04:48:17.335Z,99.90
2018-09-19T04:50:49.809Z,99.90
2018-09-19T04:53:22.284Z,99.90
2018-09-19T04:55:54.698Z,99.90
2018-09-19T04:58:27.232Z,99.90
2018-09-19T05:00:59.663Z,99.90
2018-09-19T05:03:32.126Z,99.90
2018-09-19T05:06:04.583Z,99.90
2018-09-19T05:08:37.006Z,99.90
2018-09-19T05:11:09.474Z,99.90
2018-09-19T05:13:42.001Z,99.90
2018-09-19T05:16:14.384Z,99.90
2018-09-19T05:18:46.830Z,99.90
2018-09-19T05:21:19.260Z,99.90
2018-09-19T05:23:51.694Z,99.90
2018-09-19T05:26:24.112Z,99.90
2018-09-19T05:28:56.538Z,99.90
2018-09-19T05:31:29.029Z,99.90
2018-09-19T05:34:01.402Z,99.90
2018-09-19T05:36:33.831Z,99.90
2018-09-19T05:39:07.003Z,99.90
2018-09-19T05:41:39.437Z,99.90
2018-09-19T05:44:11.886Z,99.90
2018-09-19T05:46:44.389Z,99.90
2018-09-19T05:49:17.123Z,99.90
2018-09-19T05:51:49.554Z,99.90
2018-09-19T05:54:22.025Z,99.90
2018-09-19T05:56:54.450Z,99.90
2018-09-19T05:59:26.878Z,99.90
2018-09-19T06:01:59.306Z,99.90
2018-09-19T06:04:31.749Z,99.90
2018-09-19T06:07:04.185Z,99.90
2018-09-19T06:09:36.621Z,99.90
2018-09-19T06:12:09.065Z,99.90
2018-09-19T06:14:41.490Z,99.90
2018-09-19T06:17:14.234Z,99.90
2018-09-19T06:19:46.913Z,99.90
2018-09-19T06:22:19.650Z,99.20
2018-09-19T06:24:52.133Z,98.20
2018-09-19T06:27:24.543Z,97.40
2018-09-19T06:29:56.995Z,96.30
2018-09-19T06:32:29.405Z,95.20
2018-09-19T06:35:01.864Z,94.80
2018-09-19T06:37:34.298Z,93.80
2018-09-19T06:40:06.783Z,92.90
2018-09-19T06:42:39.219Z,92.40
2018-09-19T06:45:11.619Z,92.10
2018-09-19T06:47:44.062Z,91.20
2018-09-19T06:50:16.470Z,90.90
2018-09-19T06:52:48.938Z,90.30
2018-09-19T06:55:21.454Z,90.20
2018-09-19T06:57:53.886Z,89.40
2018-09-19T07:00:26.318Z,88.20
2018-09-19T07:02:58.738Z,87.80
2018-09-19T07:05:31.166Z,86.90
2018-09-19T07:08:03.590Z,86.50
2018-09-19T07:10:36.057Z,84.60
2018-09-19T07:13:08.469Z,83.30
2018-09-19T07:15:40.978Z,83.30
2018-09-19T07:18:13.509Z,83.20
2018-09-19T07:20:45.918Z,82.90
2018-09-19T07:23:18.380Z,83.20
2018-09-19T07:25:50.797Z,82.80
2018-09-19T07:28:23.225Z,81.80
2018-09-19T07:30:55.714Z,81.30
2018-09-19T07:33:28.250Z,81.20
2018-09-19T07:36:00.678Z,80.80
2018-09-19T07:38:33.102Z,80.20
2018-09-19T07:41:05.538Z,79.50
2018-09-19T07:43:38.046Z,79.40
2018-09-19T07:46:10.483Z,78.70
2018-09-19T07:48:42.973Z,78.90
2018-09-19T07:51:15.412Z,78.70
2018-09-19T07:53:47.936Z,79.10
2018-09-19T07:56:20.362Z,79.80
2018-09-19T07:58:52.797Z,80.70
2018-09-19T08:01:25.268Z,82.50
2018-09-19T08:03:57.827Z,83.80
2018-09-19T08:06:30.431Z,84.70
2018-09-19T08:09:02.945Z,85.70
2018-09-19T08:11:35.303Z,86.90
2018-09-19T08:14:08.025Z,87.60
2018-09-19T08:16:40.463Z,88.30
2018-09-19T08:19:12.916Z,89.10
2018-09-19T08:21:45.318Z,89.00
2018-09-19T08:24:17.746Z,88.70
2018-09-19T08:26:50.154Z,88.60
2018-09-19T08:29:22.598Z,88.50
2018-09-19T08:31:54.999Z,88.70
2018-09-19T08:34:27.409Z,88.80
2018-09-19T08:36:59.819Z,88.80
2018-09-19T08:39:32.242Z,89.50
2018-09-19T08:42:04.718Z,90.10
2018-09-19T08:44:37.135Z,90.40
2018-09-19T08:47:09.587Z,90.80
2018-09-19T08:49:42.057Z,90.80
2018-09-19T08:52:14.495Z,91.20
2018-09-19T08:54:46.916Z,91.20
2018-09-19T08:57:19.333Z,91.20
2018-09-19T08:59:51.805Z,91.20
2018-09-19T09:02:24.202Z,91.20
2018-09-19T09:04:56.623Z,91.00
2018-09-19T09:07:29.078Z,91.10
2018-09-19T09:10:01.555Z,91.00
2018-09-19T09:12:34.053Z,91.00
2018-09-19T09:15:06.607Z,91.00
2018-09-19T09:17:39.168Z,91.00
2018-09-19T09:20:11.604Z,91.00
2018-09-19T09:22:44.122Z,90.80
2018-09-19T09:25:16.587Z,90.80
2018-09-19T09:27:49.015Z,90.80
2018-09-19T09:30:21.461Z,90.70
2018-09-19T09:32:53.906Z,90.80
2018-09-19T09:35:26.342Z,90.90
2018-09-19T09:37:58.791Z,90.90
2018-09-19T09:40:31.351Z,90.60
2018-09-19T09:43:03.706Z,90.50
2018-09-19T09:45:36.135Z,90.00
2018-09-19T09:48:08.565Z,89.90
2018-09-19T09:50:41.002Z,88.80
2018-09-19T09:53:13.460Z,88.00
2018-09-19T09:55:45.854Z,87.80
2018-09-19T09:58:18.558Z,87.20
2018-09-19T10:00:51.052Z,86.90
2018-09-19T10:03:23.545Z,86.10
2018-09-19T10:05:56.032Z,85.00
2018-09-19T10:08:28.445Z,84.10
2018-09-19T10:11:00.970Z,83.50
2018-09-19T10:13:33.413Z,82.80
2018-09-19T10:16:05.908Z,82.40
2018-09-19T10:18:38.541Z,81.10
2018-09-19T10:21:10.971Z,80.30
2018-09-19T10:23:43.420Z,79.60
2018-09-19T10:26:15.842Z,79.60
2018-09-19T10:28:48.265Z,80.00
2018-09-19T10:31:21.032Z,79.30
2018-09-19T10:33:53.445Z,79.00
2018-09-19T10:36:25.915Z,79.00
2018-09-19T10:38:58.331Z,80.00
2018-09-19T10:41:30.754Z,79.00
2018-09-19T10:44:03.279Z,78.70
2018-09-19T10:46:35.663Z,78.70
2018-09-19T10:49:08.098Z,78.50
2018-09-19T10:51:40.516Z,77.80
2018-09-19T10:54:12.916Z,77.50
2018-09-19T10:56:45.333Z,77.00
2018-09-19T10:59:17.726Z,76.30
2018-09-19T11:01:50.139Z,74.50
2018-09-19T11:04:22.663Z,74.00
2018-09-19T11:06:55.084Z,74.00
2018-09-19T11:09:27.614Z,73.00
2018-09-19T11:12:00.024Z,72.40
2018-09-19T11:14:32.422Z,72.80
2018-09-19T11:17:05.176Z,72.80
2018-09-19T11:19:37.548Z,72.70
2018-09-19T11:22:09.953Z,72.50
2018-09-19T11:24:42.367Z,73.00
2018-09-19T11:27:14.827Z,73.30
2018-09-19T11:29:47.230Z,72.60
2018-09-19T11:32:19.677Z,72.60
2018-09-19T11:34:52.066Z,72.10
2018-09-19T11:37:24.481Z,72.20
2018-09-19T11:39:56.891Z,72.00
2018-09-19T11:42:29.298Z,71.80
2018-09-19T11:45:01.694Z,71.50
2018-09-19T11:47:34.103Z,71.40
2018-09-19T11:50:06.509Z,71.20
2018-09-19T11:52:39.026Z,71.20
2018-09-19T11:55:11.419Z,71.00
2018-09-19T11:57:43.862Z,70.80
2018-09-19T12:00:16.286Z,71.20
2018-09-19T12:02:48.688Z,71.10
2018-09-19T12:05:21.130Z,70.40
2018-09-19T12:07:53.609Z,69.60
2018-09-19T12:10:26.076Z,69.20
2018-09-19T12:12:58.510Z,69.10
2018-09-19T12:15:30.950Z,68.30
2018-09-19T12:18:03.402Z,67.80
2018-09-19T12:20:35.953Z,67.50
2018-09-19T12:23:08.366Z,68.40
2018-09-19T12:25:40.763Z,68.00
2018-09-19T12:28:13.185Z,67.80
2018-09-19T12:30:45.578Z,68.10
2018-09-19T12:33:18.041Z,68.40
2018-09-19T12:35:50.445Z,67.00
2018-09-19T12:38:22.849Z,67.70
2018-09-19T12:40:55.344Z,67.80
2018-09-19T12:43:27.756Z,67.80
2018-09-19T12:46:00.474Z,67.40
2018-09-19T12:48:32.970Z,67.00
2018-09-19T12:51:05.578Z,67.10
2018-09-19T12:53:37.983Z,67.20
2018-09-19T12:56:10.416Z,67.20
2018-09-19T12:58:43.034Z,66.60
2018-09-19T13:01:15.451Z,66.70
2018-09-19T13:03:47.874Z,66.80
2018-09-19T13:06:20.306Z,66.70
2018-09-19T13:08:52.726Z,66.50
2018-09-19T13:11:25.410Z,65.50
2018-09-19T13:13:57.922Z,64.60
2018-09-19T13:16:30.399Z,64.30
2018-09-19T13:19:02.800Z,64.10
2018-09-19T13:21:35.266Z,64.50
2018-09-19T13:24:07.665Z,64.60
2018-09-19T13:26:40.106Z,64.00
2018-09-19T13:29:12.503Z,64.00
2018-09-19T13:34:17.250Z,62.70
2018-09-19T13:36:49.655Z,63.00
2018-09-19T13:39:22.074Z,62.00
2018-09-19T13:41:54.482Z,62.00
2018-09-19T13:44:27.094Z,61.90
2018-09-19T13:46:59.528Z,62.00
2018-09-19T13:49:35.114Z,61.50
2018-09-19T13:52:07.541Z,61.70
2018-09-19T13:54:40.064Z,61.70
2018-09-19T13:57:12.517Z,61.30
2018-09-19T13:59:44.921Z,61.70
2018-09-19T14:02:17.352Z,61.70
2018-09-19T14:04:49.758Z,61.50
2018-09-19T14:07:22.238Z,61.90
2018-09-19T14:09:54.665Z,61.90
2018-09-19T14:12:27.147Z,62.30
2018-09-19T14:14:59.833Z,62.20
2018-09-19T14:17:32.293Z,62.30
2018-09-19T14:20:04.731Z,62.60
2018-09-19T14:22:37.243Z,62.90
2018-09-19T14:25:09.679Z,63.20
2018-09-19T14:27:42.090Z,63.50
2018-09-19T14:30:14.530Z,63.60
2018-09-19T14:32:46.950Z,63.80
2018-09-19T14:35:19.386Z,63.70
2018-09-19T14:37:51.814Z,63.90
2018-09-19T14:40:24.209Z,63.40
2018-09-19T14:42:56.646Z,63.20
2018-09-19T14:45:29.111Z,62.60
2018-09-19T14:48:01.503Z,62.70
2018-09-19T14:50:33.923Z,62.90
2018-09-19T14:53:06.356Z,63.00
2018-09-19T14:55:38.850Z,62.80
2018-09-19T14:58:11.297Z,62.80
2018-09-19T15:00:43.723Z,63.30
2018-09-19T15:03:16.157Z,63.20
2018-09-19T15:05:48.600Z,62.90
2018-09-19T15:08:21.198Z,62.90
2018-09-19T15:10:53.626Z,63.30
2018-09-19T15:13:26.050Z,63.30
2018-09-19T15:15:58.510Z,63.30
2018-09-19T15:18:30.937Z,63.30
2018-09-19T15:21:03.362Z,63.30
2018-09-19T15:23:35.867Z,63.50
2018-09-19T15:26:08.314Z,63.30
2018-09-19T15:28:40.723Z,63.60
2018-09-19T15:31:13.154Z,63.50
2018-09-19T15:33:45.574Z,63.50
2018-09-19T15:36:17.998Z,63.50
2018-09-19T15:38:50.775Z,63.70
2018-09-19T15:41:23.202Z,63.20
2018-09-19T15:43:55.643Z,63.20
2018-09-19T15:46:28.050Z,63.30
2018-09-19T15:49:00.572Z,63.30
2018-09-19T15:51:32.991Z,63.60
2018-09-19T15:54:05.434Z,63.60
2018-09-19T15:56:37.842Z,64.00
2018-09-19T15:59:10.367Z,63.10
2018-09-19T16:01:42.790Z,63.00
2018-09-19T16:04:15.238Z,63.10
2018-09-19T16:06:47.661Z,63.20
2018-09-19T16:09:20.111Z,63.20
2018-09-19T16:11:52.498Z,63.40
2018-09-19T16:14:24.930Z,63.40
2018-09-19T16:16:57.323Z,63.30
2018-09-19T16:19:29.747Z,63.20
2018-09-19T16:22:03.032Z,63.40
2018-09-19T16:24:35.536Z,63.50
2018-09-19T16:27:07.953Z,63.30
2018-09-19T16:29:40.372Z,63.30
2018-09-19T16:32:12.814Z,63.30
2018-09-19T16:34:45.339Z,63.30
2018-09-19T16:37:17.722Z,63.20
2018-09-19T16:39:50.257Z,63.50
2018-09-19T16:42:22.641Z,63.80
2018-09-19T16:44:55.066Z,64.10
2018-09-19T16:47:27.468Z,64.30
2018-09-19T16:50:00.159Z,64.70
2018-09-19T16:52:32.540Z,64.90
2018-09-19T16:55:04.977Z,65.20
2018-09-19T16:57:37.377Z,65.20
2018-09-19T17:00:13.044Z,65.40
2018-09-19T17:02:45.571Z,65.60
2018-09-19T17:05:18.267Z,66.10
2018-09-19T17:07:50.743Z,66.20
2018-09-19T17:10:23.148Z,66.30
2018-09-19T17:12:55.557Z,66.70
2018-09-19T17:15:28.073Z,66.90
2018-09-19T17:18:00.364Z,67.00
2018-09-19T17:20:32.815Z,67.00
2018-09-19T17:23:05.214Z,67.40
2018-09-19T17:25:37.696Z,67.50
2018-09-19T17:28:10.129Z,67.60
2018-09-19T17:30:42.539Z,68.00
2018-09-19T17:33:15.234Z,68.30
2018-09-19T17:35:47.789Z,68.20
2018-09-19T17:38:20.609Z,68.30
2018-09-19T17:40:53.069Z,68.50
2018-09-19T17:43:25.597Z,68.60
2018-09-19T17:45:58.018Z,68.80
2018-09-19T17:48:30.432Z,69.20
2018-09-19T17:51:02.840Z,69.60
2018-09-19T17:53:35.382Z,70.20
2018-09-19T17:56:07.928Z,70.30
2018-09-19T17:58:40.345Z,70.60
2018-09-19T18:01:12.770Z,70.80
2018-09-19T18:03:45.207Z,71.80
2018-09-19T18:06:17.719Z,71.90
2018-09-19T18:08:50.093Z,71.60
2018-09-19T18:11:22.533Z,71.80
2018-09-19T18:13:54.965Z,72.50
2018-09-19T18:16:27.386Z,72.20
2018-09-19T18:18:59.817Z,72.80
2018-09-19T18:21:32.258Z,72.90
2018-09-19T18:24:04.684Z,73.50
2018-09-19T18:26:37.119Z,73.40
2018-09-19T18:29:09.550Z,73.70
2018-09-19T18:31:41.990Z,73.80
2018-09-19T18:34:14.402Z,73.80
2018-09-19T18:36:46.840Z,73.80
2018-09-19T18:39:19.285Z,74.00
2018-09-19T18:41:51.752Z,74.30
2018-09-19T18:44:24.247Z,74.50
2018-09-19T18:46:57.742Z,74.60
2018-09-19T18:49:30.158Z,74.60
2018-09-19T18:52:02.638Z,74.20
2018-09-19T18:54:35.066Z,74.40
2018-09-19T18:57:07.511Z,74.60
2018-09-19T18:59:39.950Z,74.60
2018-09-19T19:02:12.413Z,74.30
2018-09-19T19:04:44.863Z,74.40
2018-09-19T19:07:17.329Z,74.70
2018-09-19T19:09:49.798Z,74.70
2018-09-19T19:12:22.288Z,74.90
2018-09-19T19:14:55.062Z,74.90
2018-09-19T19:17:27.462Z,75.10
2018-09-19T19:19:59.894Z,74.90
2018-09-19T19:22:32.586Z,75.40
2018-09-19T19:25:05.030Z,75.90
2018-09-19T19:27:37.458Z,75.50
2018-09-19T19:30:09.949Z,75.90
2018-09-19T19:32:42.349Z,76.10
2018-09-19T19:35:14.770Z,76.20
2018-09-19T19:37:47.276Z,76.80
2018-09-19T19:40:19.671Z,76.90
2018-09-19T19:42:52.092Z,77.00
2018-09-19T19:45:24.554Z,78.20
2018-09-19T19:47:56.966Z,77.30
2018-09-19T19:50:29.411Z,77.30
2018-09-19T19:53:01.821Z,77.10
2018-09-19T19:55:34.291Z,77.10
2018-09-19T19:58:06.995Z,77.20
2018-09-19T20:00:39.490Z,77.20
2018-09-19T20:03:11.906Z,77.30
2018-09-19T20:05:44.349Z,77.50
2018-09-19T20:08:16.794Z,77.60
2018-09-19T20:10:49.247Z,77.60
2018-09-19T20:13:21.756Z,77.90
2018-09-19T20:15:54.434Z,78.20
2018-09-19T20:18:26.878Z,78.30
2018-09-19T20:20:59.315Z,78.70
2018-09-19T20:23:31.746Z,78.20
2018-09-19T20:26:04.156Z,78.40
2018-09-19T20:28:36.568Z,78.80
2018-09-19T20:31:08.991Z,78.80
2018-09-19T20:33:41.422Z,79.60
2018-09-19T20:36:13.881Z,79.40
2018-09-19T20:38:46.302Z,79.50
2018-09-19T20:41:19.076Z,79.30
2018-09-19T20:43:51.473Z,79.20
2018-09-19T20:46:23.930Z,79.50
2018-09-19T20:48:56.558Z,79.90
2018-09-19T20:51:29.019Z,80.10
2018-09-19T20:54:01.454Z,80.40
2018-09-19T20:56:33.879Z,81.20
2018-09-19T20:59:06.393Z,81.00
2018-09-19T21:01:39.068Z,80.70
2018-09-19T21:04:11.498Z,81.00
2018-09-19T21:06:43.962Z,81.30
2018-09-19T21:09:16.451Z,82.00
2018-09-19T21:11:48.887Z,82.30
2018-09-19T21:14:21.291Z,81.90
2018-09-19T21:16:53.721Z,82.50
2018-09-19T21:19:26.122Z,82.50
2018-09-19T21:21:58.570Z,82.70
2018-09-19T21:24:30.963Z,83.10
2018-09-19T21:27:03.679Z,82.80
2018-09-19T21:29:36.087Z,83.10
2018-09-19T21:32:08.571Z,83.00
2018-09-19T21:34:40.922Z,83.80
2018-09-19T21:37:13.326Z,83.70
2018-09-19T21:39:45.724Z,83.80
2018-09-19T21:42:18.152Z,84.30
2018-09-19T21:44:50.562Z,84.50
2018-09-19T21:47:22.966Z,84.50
2018-09-19T21:49:55.371Z,85.10
2018-09-19T21:52:27.786Z,85.30
2018-09-19T21:55:00.189Z,85.50
2018-09-19T21:57:32.596Z,85.70
2018-09-19T22:00:05.811Z,86.00
2018-09-19T22:02:38.243Z,86.00
2018-09-19T22:05:10.714Z,86.40
2018-09-19T22:07:43.090Z,86.50
2018-09-19T22:10:15.490Z,86.70
2018-09-19T22:12:47.914Z,87.10
2018-09-19T22:15:20.314Z,87.80
2018-09-19T22:17:52.726Z,87.60
2018-09-19T22:20:25.134Z,88.10
2018-09-19T22:22:57.570Z,88.10
2018-09-19T22:25:29.979Z,88.20
2018-09-19T22:28:02.403Z,88.70
2018-09-19T22:30:34.805Z,88.70
2018-09-19T22:33:07.210Z,89.00
2018-09-19T22:38:18.394Z,89.20
2018-09-19T22:40:50.801Z,89.60
2018-09-19T22:43:23.206Z,89.80
2018-09-19T22:45:55.930Z,89.80
2018-09-19T22:48:28.505Z,90.10
2018-09-19T22:51:00.909Z,90.20
2018-09-19T22:53:33.322Z,90.20
2018-09-19T22:56:06.036Z,90.30
2018-09-19T22:58:38.463Z,90.50
2018-09-19T23:01:10.877Z,90.60
2018-09-19T23:03:43.310Z,90.80
2018-09-19T23:06:15.734Z,90.80
2018-09-19T23:08:48.166Z,90.80
2018-09-19T23:11:20.563Z,90.90
2018-09-19T23:13:52.960Z,91.00
2018-09-19T23:16:25.378Z,91.20
2018-09-19T23:18:57.798Z,91.30
2018-09-19T23:21:30.282Z,91.60
2018-09-19T23:24:02.938Z,91.40
2018-09-19T23:26:35.334Z,91.50
2018-09-19T23:29:07.762Z,91.70
2018-09-19T23:31:40.461Z,91.90
2018-09-19T23:34:12.878Z,92.00
2018-09-19T23:36:45.293Z,91.90
2018-09-19T23:39:17.710Z,92.20
2018-09-19T23:41:50.108Z,92.30
2018-09-19T23:44:22.520Z,92.40
2018-09-19T23:46:54.938Z,92.40
2018-09-19T23:49:27.374Z,92.80
2018-09-19T23:51:59.758Z,93.00
2018-09-19T23:54:32.174Z,92.90
2018-09-19T23:57:04.596Z,93.00
2018-09-19T23:59:37.030Z,93.00
